Aviation Digital Data Service (ADDS)

Output produced by METARs form (0306 UTC 26 July 2014)
found at http://aviationweather.gov/adds/metars/
 
KBGR 260010Z 2600/2624 00000KT P6SM FEW150 
     FM261300 23006KT P6SM FEW250 
     FM261700 22010KT P6SM SCT070